Flight Track Log - Related Links

Times and Time Zones

All times are in EDT time to prevent confusion due to time zone crossing. See the SWA662 flight status page for this flight to view local times or setup timezone preferences in your user account.

Time Position Orientation Groundspeed Altitude Reporting Facility
EDT Latitude Longitude Course Direction KTS MPH feet Rate Location/Type
Fri 12:24:31 AM 33.9500 -118.4500 220° Southwest 161 185 1,300  Level Southern California TRACON
Fri 12:25:31 AM 33.9000 -118.5000 220° Southwest 230 265 2,700 1,785 Climbing Southern California TRACON
Fri 12:26:32 AM 33.8292 -118.5114 188° South 269 310 4,900 2,607 Climbing Los Angeles Center
Fri 12:27:33 AM 33.7531 -118.5169 183° South 278 320 8,000 2,683 Climbing Los Angeles Center
Fri 12:28:35 AM 33.6844 -118.4800 156° South 304 350 10,400 2,341 Climbing Los Angeles Center
Fri 12:29:36 AM 33.6900 -118.3494 87° East 343 395 12,800 2,341 Climbing Los Angeles Center
Fri 12:30:38 AM 33.7253 -118.2397 69° East 365 420 15,200 2,049 Climbing Los Angeles Center
Fri 12:31:39 AM 33.7631 -118.1203 69° East 382 440 17,000 2,049 Climbing Los Angeles Center
Fri 12:32:41 AM 33.8300 -118.0117 53° Northeast 410 472 19,400 2,098 Climbing Los Angeles Center
Fri 12:33:42 AM 33.9236 -117.9283 36° Northeast 421 484 21,300 2,213 Climbing Los Angeles Center
Fri 12:34:43 AM 34.0400 -117.8225 37° Northeast 437 503 23,900 2,244 Climbing Los Angeles Center
Fri 12:35:45 AM 34.1319 -117.7225 42° Northeast 445 512 25,900 1,756 Climbing Los Angeles Center
Fri 12:36:46 AM 34.2142 -117.6083 49° Northeast 451 519 27,500 1,366 Climbing Los Angeles Center
Fri 12:37:48 AM 34.3000 -117.4925 48° Northeast 460 529 28,700 1,171 Climbing Los Angeles Center
Fri 12:38:49 AM 34.3922 -117.3653 49° Northeast 479 551 29,900 1,131 Climbing Los Angeles Center
Fri 12:39:50 AM 34.4822 -117.2422 48° Northeast 489 563 31,000 1,268 Climbing Los Angeles Center
Fri 12:40:52 AM 34.5722 -117.1169 49° Northeast 495 570 32,500 1,268 Climbing Los Angeles Center
Fri 12:41:53 AM 34.6628 -116.9911 49° Northeast 498 573 33,600 1,171 Climbing Los Angeles Center
Fri 12:42:55 AM 34.7533 -116.8656 49° Northeast 498 573 34,900 1,220 Climbing Los Angeles Center
Fri 12:43:56 AM 34.8433 -116.7417 48° Northeast 492 566 36,100 1,024 Climbing Los Angeles Center
Fri 12:44:58 AM 34.9503 -116.5911 49° Northeast 491 565 37,000 439 Climbing Los Angeles Center
Fri 12:45:59 AM 35.0436 -116.4725 46° Northeast 489 563 37,000  Level Los Angeles Center
Fri 12:47:01 AM 35.1383 -116.3539 46° Northeast 489 563 37,000  Level Los Angeles Center
Fri 12:48:02 AM 35.2347 -116.2353 45° Northeast 492 566 37,000  Level Los Angeles Center
Fri 12:49:04 AM 35.3261 -116.1139 47° Northeast 487 560 37,000  Level Los Angeles Center
Fri 12:50:05 AM 35.3919 -115.9686 61° Northeast 488 562 37,000  Level Los Angeles Center
Fri 12:51:07 AM 35.4556 -115.8211 62° Northeast 491 565 37,000  Level Los Angeles Center
Fri 12:52:08 AM 35.5206 -115.6650 63° Northeast 489 563 37,000  Level Los Angeles Center
Fri 12:53:10 AM 35.5939 -115.4858 63° Northeast 494 568 37,000  Level Los Angeles Center
Fri 12:54:11 AM 35.6561 -115.3356 63° Northeast 497 572 37,000  Level Los Angeles Center
Fri 12:55:13 AM 35.7156 -115.1839 64° Northeast 496 571 37,000  Level Los Angeles Center
Fri 12:56:14 AM 35.7750 -115.0364 64° Northeast 489 563 37,000  Level Los Angeles Center
Fri 12:57:16 AM 35.8358 -114.8850 64° Northeast 492 566 37,000  Level Los Angeles Center
Fri 12:58:17 AM 35.8997 -114.7306 63° Northeast 502 578 37,000  Level Los Angeles Center
Fri 12:59:19 AM 35.9611 -114.5778 64° Northeast 501 577 37,000  Level Los Angeles Center
Fri 01:00:20 AM 36.0325 -114.3950 64° Northeast 498 573 37,000  Level Los Angeles Center
Fri 01:01:22 AM 36.0931 -114.2431 64° Northeast 495 570 37,000  Level Los Angeles Center
Fri 01:02:23 AM 36.1517 -114.0906 65° Northeast 493 567 37,000  Level Los Angeles Center
Fri 01:03:25 AM 36.2139 -113.9361 63° Northeast 499 574 37,000  Level Los Angeles Center
Fri 01:04:26 AM 36.2733 -113.7811 65° Northeast 500 575 37,000  Level Los Angeles Center
Fri 01:05:28 AM 36.3328 -113.6272 64° Northeast 498 573 37,000  Level Los Angeles Center
Fri 01:06:29 AM 36.3925 -113.4736 64° Northeast 495 570 37,000  Level Los Angeles Center
Fri 01:07:31 AM 36.4533 -113.3194 64° Northeast 497 572 37,000  Level Los Angeles Center
Fri 01:08:32 AM 36.5236 -113.1322 65° Northeast 500 575 37,000  Level Los Angeles Center
Fri 01:09:34 AM 36.5811 -112.9775 65° Northeast 497 572 37,000  Level Los Angeles Center
Fri 01:10:35 AM 36.6406 -112.8231 64° Northeast 497 572 37,000  Level Los Angeles Center
Fri 01:11:49 AM 36.7106 -112.6356 65° Northeast 500 575 37,000  Level Los Angeles Center
Fri 01:12:51 AM 36.7700 -112.4800 64° Northeast 501 577 37,000  Level Los Angeles Center
Fri 01:13:52 AM 36.8269 -112.3250 65° Northeast 497 572 37,000  Level Los Angeles Center
Fri 01:14:54 AM 36.8967 -112.1392 65° Northeast 495 570 37,000  Level Los Angeles Center
Fri 01:15:55 AM 36.9525 -111.9839 66° East 494 568 37,000  Level Los Angeles Center
Fri 01:16:57 AM 37.0106 -111.8292 65° Northeast 495 570 37,000  Level Los Angeles Center
Fri 01:17:58 AM 37.0678 -111.6722 65° Northeast 497 572 37,000  Level Los Angeles Center
Fri 01:18:22 AM 37.0933 -111.6089 63° Northeast 498 573 37,000  Level Denver Center
Fri 01:19:23 AM 37.1544 -111.4572 63° Northeast 493 567 37,000  Level Denver Center
Fri 01:20:24 AM 37.2192 -111.3028 62° Northeast 500 575 37,000  Level Denver Center
Fri 01:21:25 AM 37.2689 -111.1794 63° Northeast 500 575 37,000  Level Denver Center
Fri 01:22:26 AM 37.3453 -110.9942 63° Northeast 499 574 37,000  Level Denver Center
Fri 01:23:27 AM 37.4089 -110.8383 63° Northeast 501 577 37,000  Level Denver Center
Fri 01:24:28 AM 37.4703 -110.6831 63° Northeast 498 573 37,000  Level Denver Center
Fri 01:25:29 AM 37.5389 -110.5106 63° Northeast 497 572 37,000  Level Denver Center
Fri 01:26:30 AM 37.5981 -110.3633 63° Northeast 492 566 37,000  Level Denver Center
Fri 01:27:30 AM 37.6664 -110.1917 63° Northeast 491 565 37,000  Level Denver Center
Fri 01:28:31 AM 37.7242 -110.0439 64° Northeast 490 564 37,000  Level Denver Center
Fri 01:29:32 AM 37.7828 -109.8986 63° Northeast 487 560 37,000  Level Denver Center
Fri 01:30:33 AM 37.8506 -109.7242 64° Northeast 492 566 37,000  Level Denver Center
Fri 01:31:34 AM 37.9086 -109.5736 64° Northeast 495 570 37,000  Level Denver Center
Fri 01:32:35 AM 37.9669 -109.4214 64° Northeast 499 574 37,000  Level Denver Center
Fri 01:34:00 AM 38.0471 -109.2144 64° Northeast  Level FlightAware Approximate
Fri 01:34:36 AM 38.0917 -109.0942 64° Northeast 504 580 37,000  Level Denver Center
Fri 01:36:00 AM 38.1713 -108.8912 64° Northeast  Level FlightAware Approximate
Fri 01:38:39 AM 38.3439 -108.4314 65° Northeast 507 583 37,000  Level Denver Center
Fri 01:39:40 AM 38.4022 -108.2753 64° Northeast 511 588 37,000  Level Denver Center
Fri 01:40:41 AM 38.4597 -108.1225 64° Northeast 503 579 37,000  Level Denver Center
Fri 01:41:42 AM 38.5256 -107.9442 65° Northeast 500 575 37,000  Level Denver Center
Fri 01:42:43 AM 38.5817 -107.7906 65° Northeast 499 574 37,000  Level Denver Center
Fri 01:43:00 AM 38.5597 -107.8551 65° Northeast  Level FlightAware Approximate
Fri 01:43:43 AM 38.6381 -107.6358 65° Northeast 502 578 37,000  Level Denver Center
Fri 01:44:44 AM 38.7031 -107.4569 65° Northeast 499 574 37,000  Level Denver Center
Fri 01:45:45 AM 38.7500 -107.3269 65° Northeast 503 579 37,000  Level Denver Center
Fri 01:46:46 AM 38.8142 -107.1489 65° Northeast 504 580 37,000  Level Denver Center
Fri 01:47:47 AM 38.8725 -106.9856 65° Northeast 507 583 37,000  Level Denver Center
Fri 01:48:47 AM 38.9372 -106.8050 65° Northeast 506 582 37,000 -198 Level Denver Center
Fri 01:49:48 AM 38.9919 -106.6481 66° East 505 581 36,600 -1,475 Descending Denver Center
Fri 01:50:49 AM 39.0553 -106.4667 66° East 499 574 34,000 -2,361 Descending Denver Center
Fri 01:51:50 AM 39.1081 -106.3153 66° East 489 563 31,800 -1,934 Descending Denver Center
Fri 01:52:50 AM 39.1675 -106.1428 66° East 478 550 30,100 -1,785 Descending Denver Center
Fri 01:53:51 AM 39.2197 -105.9919 66° East 463 533 28,200 -1,820 Descending Denver Center
Fri 01:54:52 AM 39.2694 -105.8481 66° East 450 518 26,400 -2,033 Descending Denver Center
Fri 01:55:52 AM 39.3219 -105.6958 66° East 462 532 24,100 -2,281 Descending Denver Center
Fri 01:56:53 AM 39.3725 -105.5469 66° East 456 525 21,800 -1,869 Descending Denver Center
Fri 01:57:54 AM 39.4336 -105.4089 60° Northeast 426 490 20,300 -1,820 Descending Denver Center
Fri 01:58:55 AM 39.4975 -105.2864 56° Northeast 410 472 18,100 -1,884 Descending Denver Center
Fri 01:59:55 AM 39.5608 -105.1675 55° Northeast 399 459 16,500 -1,884 Descending Denver Center
Fri 02:00:56 AM 39.6175 -105.0492 58° Northeast 386 444 14,300 -2,066 Descending Denver Center
Fri 02:01:57 AM 39.6531 -104.9197 70° East 382 440 12,300 -1,636 Descending Denver Center
Fri 02:02:57 AM 39.6939 -104.7836 69° East 381 438 11,000 -645 Descending Denver Center
Fri 02:03:58 AM 39.7239 -104.6789 70° East 317 365 11,000  Level Denver Center
Fri 02:04:58 AM 39.7453 -104.5792 74° East 286 329 11,000 50 Level Denver Center
Fri 02:05:59 AM 39.7619 -104.4878 77° East 264 304 11,100 -295 Climbing Denver Center
Fri 02:07:00 AM 39.7775 -104.4064 76° East 229 264 10,400 -893 Descending Denver Center
Fri 02:08:00 AM 39.8156 -104.3394 53° Northeast 240 276 9,300 -1,190 Descending Denver Center
Fri 02:09:01 AM 39.8731 -104.3589 345° North 217 250 8,000 -1,041 Descending Denver Center
Fri 02:10:01 AM 39.8750 -104.4289 272° West 195 224 7,200 -496 Descending Denver Center
Fri 02:11:02 AM 39.8758 -104.5019 271° West 200 230 7,000 -541 Descending Denver Center
Fri 02:12:03 AM 39.8764 -104.5664 271° West 182 209 6,100 -843 Descending Denver Center
Fri 02:13:03 AM 39.8772 -104.6239 271° West 163 188 5,300 -800 Descending Denver Center
Fri 02:15:00 AM 39.8500 -104.6667 180° South  Level FlightAware Approximate
Fri 02:22:00 AM 39.8617 -104.6732 180° South  Level Estimated
Fri 02:23:00 AM 39.8617 -104.6732 180° South  Level Estimated
Fri 02:24:00 AM 39.8617 -104.6732 180° South  Level Estimated

Login

Don't have an account? Register now (free) for customized features, flight alerts, and more!